Time;durP1;ratioP1;P1;durP2;ratioP2;P2;SDS_P1;SDS_P2;PMS_P1;PMS_P2;Temp;Humidity;BMP_temperature;BMP_pressure;BME280_temperature;BME280_humidity;BME280_pressure;Samples;Min_cycle;Max_cycle;Signal;HPM_P1;HPM_P2
2022/06/12 00:01:03;;;;;;;8.25;2.50;;;12.80;99.90;;;;;;5021628;28;20033;-84
2022/06/12 00:03:32;;;;;;;7.45;2.05;;;12.80;99.90;;;;;;5018162;28;20451;-83
2022/06/12 00:05:58;;;;;;;8.38;2.20;;;12.80;99.90;;;;;;5002354;28;20087;-85
2022/06/12 00:08:24;;;;;;;8.38;2.13;;;12.80;99.90;;;;;;5001318;28;20100;-84
2022/06/12 00:10:50;;;;;;;10.98;2.33;;;12.80;99.90;;;;;;4984915;28;20541;-84
2022/06/12 00:13:21;;;;;;;7.80;2.72;;;12.70;99.90;;;;;;5000744;28;20485;-83
2022/06/12 00:15:47;;;;;;;9.50;2.47;;;12.70;99.90;;;;;;5001753;28;20124;-84
2022/06/12 00:18:12;;;;;;;7.97;2.20;;;12.70;99.90;;;;;;5000958;28;20462;-85
2022/06/12 00:20:38;;;;;;;10.02;2.67;;;12.70;99.90;;;;;;5000851;28;20076;-86
2022/06/12 00:23:08;;;;;;;8.65;2.20;;;12.70;99.90;;;;;;5000817;28;20045;-86
2022/06/12 00:25:34;;;;;;;10.07;2.55;;;12.60;99.90;;;;;;5001220;28;20077;-85
2022/06/12 00:28:00;;;;;;;9.98;2.65;;;12.60;99.90;;;;;;5020656;28;20107;-85
2022/06/12 00:30:25;;;;;;;8.45;2.72;;;12.60;99.90;;;;;;4971024;28;20428;-85
2022/06/12 00:32:52;;;;;;;9.15;2.90;;;12.60;99.90;;;;;;4983983;28;20161;-83
2022/06/12 00:35:23;;;;;;;5.53;2.17;;;12.60;99.90;;;;;;4999878;28;20511;-85
2022/06/12 00:37:49;;;;;;;11.80;2.30;;;12.50;99.90;;;;;;5016604;28;20048;-84
2022/06/12 00:40:15;;;;;;;10.27;2.42;;;12.50;99.90;;;;;;4984207;28;20124;-83
2022/06/12 00:42:46;;;;;;;9.57;3.05;;;12.40;99.90;;;;;;5016798;28;20057;-85
2022/06/12 00:45:53;;;;;;;9.65;2.83;;;12.40;99.90;;;;;;5001033;28;20543;-84
2022/06/12 00:48:21;;;;;;;12.90;3.20;;;12.40;99.90;;;;;;4987963;28;20612;-84
2022/06/12 00:50:55;;;;;;;10.68;2.40;;;12.30;99.90;;;;;;5000612;28;20050;-85
2022/06/12 00:53:26;;;;;;;8.63;2.90;;;12.30;99.90;;;;;;4999997;28;20131;-85
2022/06/12 00:56:14;;;;;;;9.45;2.58;;;12.30;99.90;;;;;;4984746;28;20048;-86
2022/06/12 00:58:44;;;;;;;8.57;2.75;;;12.40;99.90;;;;;;4985282;28;20393;-84
2022/06/12 01:01:13;;;;;;;7.93;2.75;;;12.40;99.90;;;;;;4984517;28;20057;-85
2022/06/12 01:06:33;;;;;;;13.30;2.70;;;12.40;99.90;;;;;;4999967;28;20382;-85
2022/06/12 01:06:33;;;;;;;8.60;2.53;;;12.30;99.90;;;;;;5002261;28;20547;-84
2022/06/12 01:08:59;;;;;;;;;;;12.40;99.90;;;;;;4970688;28;20059;-85
2022/06/12 01:11:24;;;;;;;7.90;2.85;;;12.40;99.90;;;;;;5015703;28;19921;-84
2022/06/12 01:13:50;;;;;;;11.30;2.67;;;12.30;99.90;;;;;;4983814;28;20053;-84
2022/06/12 01:16:18;;;;;;;10.38;2.75;;;12.40;99.90;;;;;;4999932;28;20049;-85
2022/06/12 01:18:50;;;;;;;9.75;2.80;;;12.40;99.90;;;;;;4999573;28;20057;-84
2022/06/12 01:21:34;;;;;;;9.85;2.90;;;12.40;99.90;;;;;;4995093;28;20068;-85
2022/06/12 01:24:21;;;;;;;13.55;3.17;;;12.40;99.90;;;;;;5038715;28;20147;-86
2022/06/12 01:27:00;;;;;;;9.65;3.53;;;12.30;99.90;;;;;;5035928;28;20084;-84
2022/06/12 01:29:37;;;;;;;14.25;3.53;;;12.30;99.90;;;;;;5021106;28;20111;-83
2022/06/12 01:32:13;;;;;;;8.02;2.65;;;12.30;99.90;;;;;;5018094;28;20053;-85
2022/06/12 01:34:41;;;;;;;6.70;3.00;;;12.00;99.90;;;;;;4984855;28;20057;-84
2022/06/12 01:37:29;;;;;;;9.98;2.95;;;12.30;99.90;;;;;;5017389;28;20133;-84
2022/06/12 01:40:07;;;;;;;9.20;3.17;;;12.40;99.90;;;;;;5016791;28;20052;-86
2022/06/12 01:42:58;;;;;;;9.77;2.90;;;12.30;99.90;;;;;;5015830;28;20100;-83
2022/06/12 01:45:35;;;;;;;9.32;2.95;;;12.30;99.90;;;;;;5015682;28;20057;-84
2022/06/12 01:48:10;;;;;;;11.98;3.30;;;12.30;99.90;;;;;;5015938;28;20508;-84
2022/06/12 01:51:17;;;;;;;8.80;3.47;;;12.30;99.90;;;;;;5015641;28;20103;-85
2022/06/12 01:54:05;;;;;;;10.93;3.70;;;12.30;99.90;;;;;;4972369;28;20069;-86
2022/06/12 01:56:45;;;;;;;9.57;3.72;;;12.30;99.90;;;;;;4983987;28;20132;-83
2022/06/12 01:59:11;;;;;;;9.73;3.45;;;12.30;99.90;;;;;;4983245;28;20057;-84
2022/06/12 02:01:51;;;;;;;8.05;3.08;;;12.30;99.90;;;;;;5015308;28;20086;-84
2022/06/12 02:04:34;;;;;;;11.05;3.33;;;12.30;99.90;;;;;;4999238;28;20055;-83
2022/06/12 02:07:18;;;;;;;8.02;2.80;;;12.30;99.90;;;;;;4984406;28;20057;-83
2022/06/12 02:10:15;;;;;;;8.40;3.35;;;12.30;99.90;;;;;;5014883;28;20103;-84
2022/06/12 02:15:56;;;;;;;11.82;3.53;;;12.30;99.90;;;;;;4987191;28;20494;-84
2022/06/12 02:18:33;;;;;;;10.52;3.35;;;12.30;99.90;;;;;;4993942;28;20080;-84
2022/06/12 02:21:13;;;;;;;10.60;3.10;;;12.30;99.90;;;;;;4999701;28;20045;-85
2022/06/12 02:23:40;;;;;;;12.43;3.25;;;12.20;99.90;;;;;;5014307;28;20489;-83
2022/06/12 02:26:06;;;;;;;11.73;3.35;;;12.20;99.90;;;;;;4998852;28;20056;-84
2022/06/12 02:28:40;;;;;;;13.10;2.85;;;12.20;99.90;;;;;;4983081;28;20132;-83
2022/06/12 02:31:09;;;;;;;10.77;3.40;;;12.20;99.90;;;;;;5015449;28;20045;-84
2022/06/12 02:33:36;;;;;;;8.50;3.45;;;12.10;99.90;;;;;;4998527;28;20049;-84
2022/06/12 02:36:07;;;;;;;13.00;3.08;;;12.20;99.90;;;;;;4999024;28;20544;-83
2022/06/12 02:38:39;;;;;;;9.32;3.13;;;12.10;99.90;;;;;;5015325;28;20053;-85
2022/06/12 02:41:29;;;;;;;11.55;3.08;;;12.10;99.90;;;;;;5012411;28;20110;-84
2022/06/12 02:43:57;;;;;;;8.43;3.17;;;12.20;99.90;;;;;;5000835;28;20049;-84
2022/06/12 02:46:56;;;;;;;10.23;3.35;;;12.10;99.90;;;;;;5002760;28;20064;-85
2022/06/12 02:49:22;;;;;;;12.45;3.35;;;12.20;99.90;;;;;;4985010;28;20103;-84
2022/06/12 02:52:01;;;;;;;9.57;3.70;;;12.10;99.90;;;;;;5014896;28;20133;-83
2022/06/12 02:54:34;;;;;;;9.15;3.30;;;12.10;99.90;;;;;;4983572;28;20429;-83
2022/06/12 02:57:36;;;;;;;7.55;3.00;;;12.10;99.90;;;;;;4998339;28;20053;-84
2022/06/12 03:00:06;;;;;;;9.50;3.90;;;12.10;99.90;;;;;;5004217;28;20118;-85
2022/06/12 03:02:41;;;;;;;12.88;3.53;;;12.10;99.90;;;;;;5018723;28;20049;-84
2022/06/12 03:05:21;;;;;;;10.32;3.72;;;12.10;99.90;;;;;;4986125;28;20057;-84
2022/06/12 03:07:49;;;;;;;8.73;2.85;;;12.20;99.90;;;;;;5002595;28;20060;-84
2022/06/12 03:10:16;;;;;;;12.75;3.33;;;12.10;99.90;;;;;;4986493;28;20109;-85
2022/06/12 03:12:42;;;;;;;10.48;3.30;;;12.10;99.90;;;;;;4969663;28;20049;-86
2022/06/12 03:15:11;;;;;;;10.88;3.20;;;12.10;99.90;;;;;;5001834;28;20053;-84
2022/06/12 03:17:37;;;;;;;8.80;3.30;;;12.10;99.90;;;;;;5001767;28;20057;-84
2022/06/12 03:20:03;;;;;;;9.70;3.60;;;12.10;99.90;;;;;;5001723;28;20041;-85
2022/06/12 03:22:43;;;;;;;11.98;3.90;;;12.10;99.90;;;;;;4985506;28;20053;-84
2022/06/12 03:25:23;;;;;;;9.27;2.92;;;12.10;99.90;;;;;;5018914;28;20148;-85
2022/06/12 03:28:10;;;;;;;11.70;3.83;;;12.10;99.90;;;;;;4986038;28;20132;-85
2022/06/12 03:30:46;;;;;;;10.18;4.65;;;12.10;99.90;;;;;;5001606;28;20050;-85
2022/06/12 03:33:55;;;;;;;9.93;3.45;;;12.10;99.90;;;;;;4985675;28;20057;-86
2022/06/12 03:36:31;;;;;;;7.93;3.00;;;12.10;99.90;;;;;;5002240;28;20062;-84
2022/06/12 03:39:18;;;;;;;13.73;4.05;;;12.10;99.90;;;;;;4985389;28;20050;-84
2022/06/12 03:42:13;;;;;;;11.50;3.35;;;12.20;99.90;;;;;;4985509;28;20402;-84
2022/06/12 03:45:08;;;;;;;7.40;2.88;;;12.30;99.90;;;;;;5034032;28;20069;-86
2022/06/12 03:47:52;;;;;;;10.88;4.00;;;12.40;99.90;;;;;;4996622;28;20064;-85
2022/06/12 03:50:31;;;;;;;8.15;2.80;;;12.50;99.90;;;;;;5009817;28;20068;-87
2022/06/12 03:53:34;;;;;;;7.32;3.10;;;12.50;99.90;;;;;;4984649;28;20088;-86
2022/06/12 03:59:02;;;;;;;9.98;3.25;;;12.60;99.90;;;;;;4990506;28;20077;-87
2022/06/12 04:01:28;;;;;;;12.23;3.28;;;12.60;99.90;;;;;;5021067;28;20025;-88
2022/06/12 04:03:53;;;;;;;10.68;3.40;;;12.70;99.90;;;;;;4991722;28;20033;-85
2022/06/12 04:06:23;;;;;;;10.82;2.97;;;12.70;99.90;;;;;;5022310;28;20064;-86
2022/06/12 04:09:00;;;;;;;10.80;3.42;;;12.70;99.90;;;;;;4995361;28;20442;-83
2022/06/12 04:11:26;;;;;;;8.30;3.72;;;12.80;99.90;;;;;;4993412;28;20107;-85
2022/06/12 04:13:52;;;;;;;11.63;3.50;;;12.80;99.90;;;;;;4985427;28;20056;-83
2022/06/12 04:16:22;;;;;;;12.25;3.50;;;12.90;99.90;;;;;;4985168;28;20053;-84
2022/06/12 04:18:48;;;;;;;8.38;3.13;;;13.10;99.90;;;;;;5017314;28;20050;-84
2022/06/12 04:21:33;;;;;;;8.75;3.58;;;13.10;99.90;;;;;;4984916;28;20052;-84
2022/06/12 04:24:08;;;;;;;15.73;3.65;;;13.10;99.90;;;;;;5001326;28;20541;-84
2022/06/12 04:26:36;;;;;;;11.38;3.60;;;13.30;99.90;;;;;;5001316;28;20055;-84
2022/06/12 04:29:11;;;;;;;12.68;3.65;;;13.30;99.90;;;;;;4985024;28;20104;-84
2022/06/12 04:31:37;;;;;;;11.27;3.20;;;13.40;99.90;;;;;;5017523;28;20053;-85
2022/06/12 04:34:24;;;;;;;10.48;3.20;;;13.40;99.90;;;;;;4984321;28;20052;-84
2022/06/12 04:36:53;;;;;;;8.82;2.80;;;13.60;99.90;;;;;;5016689;28;20089;-84
2022/06/12 04:39:21;;;;;;;11.10;3.03;;;13.80;99.90;;;;;;5000472;28;20049;-86
2022/06/12 04:41:47;;;;;;;11.35;3.10;;;14.40;99.90;;;;;;5016192;28;20065;-85
2022/06/12 04:44:13;;;;;;;8.38;2.85;;;15.10;99.90;;;;;;5016489;28;20470;-85
2022/06/12 04:46:39;;;;;;;9.48;3.05;;;15.80;99.90;;;;;;5016406;28;20045;-85
2022/06/12 04:49:05;;;;;;;10.18;3.45;;;16.30;99.90;;;;;;5000050;28;20049;-85
2022/06/12 04:51:31;;;;;;;10.93;2.75;;;16.70;99.90;;;;;;4983840;28;20107;-86
2022/06/12 04:53:56;;;;;;;8.90;3.58;;;17.20;99.90;;;;;;4999701;28;20041;-85
2022/06/12 04:56:30;;;;;;;9.48;2.78;;;17.30;99.90;;;;;;4983638;28;20049;-85
2022/06/12 04:58:56;;;;;;;9.90;3.05;;;17.90;99.90;;;;;;4999597;28;20456;-85
2022/06/12 05:01:22;;;;;;;8.45;2.88;;;17.90;99.90;;;;;;5000778;28;20115;-86
2022/06/12 05:03:48;;;;;;;8.73;3.03;;;18.00;99.90;;;;;;5000347;28;20045;-84
2022/06/12 05:06:14;;;;;;;8.15;3.00;;;18.60;99.90;;;;;;5000305;28;20379;-85
2022/06/12 05:08:39;;;;;;;10.32;3.20;;;18.80;99.90;;;;;;5001112;28;20124;-84
2022/06/12 05:11:05;;;;;;;11.05;3.05;;;18.80;99.90;;;;;;5033986;28;20469;-84
2022/06/12 05:13:31;;;;;;;8.57;2.63;;;19.40;99.90;;;;;;5016353;28;20054;-86
2022/06/12 05:15:56;;;;;;;9.15;2.78;;;19.60;99.90;;;;;;5016485;28;20132;-85
2022/06/12 05:18:22;;;;;;;7.75;2.65;;;19.60;99.90;;;;;;5017134;28;20041;-86
2022/06/12 05:20:48;;;;;;;11.23;3.25;;;19.60;99.90;;;;;;5018531;28;20345;-88
2022/06/12 05:23:14;;;;;;;9.80;2.78;;;19.30;99.90;;;;;;5040399;28;20045;-91
2022/06/12 05:25:41;;;;;;;8.82;3.53;;;19.90;99.90;;;;;;4980639;28;20049;-85
2022/06/12 05:28:06;;;;;;;5.25;2.53;;;19.60;99.90;;;;;;5001596;28;20053;-84
2022/06/12 05:30:33;;;;;;;13.63;2.80;;;20.40;99.90;;;;;;4983669;28;20488;-86
2022/06/12 05:32:59;;;;;;;11.38;2.72;;;20.60;99.90;;;;;;5016002;28;20405;-85
2022/06/12 05:35:25;;;;;;;12.02;2.70;;;20.80;99.90;;;;;;4999612;28;20144;-86
2022/06/12 05:37:51;;;;;;;11.15;3.58;;;21.10;99.90;;;;;;5015208;28;20179;-85
2022/06/12 05:40:20;;;;;;;12.15;3.10;;;21.10;99.90;;;;;;5015435;28;20038;-85
2022/06/12 05:42:46;;;;;;;9.95;2.75;;;21.40;99.90;;;;;;4999162;28;20193;-86
2022/06/12 05:45:14;;;;;;;8.18;2.85;;;21.10;99.90;;;;;;5015410;28;20124;-85
2022/06/12 05:47:44;;;;;;;9.73;3.10;;;21.60;99.90;;;;;;5015518;28;20500;-84
2022/06/12 05:50:11;;;;;;;11.45;2.90;;;21.80;99.90;;;;;;4998918;28;20131;-85
2022/06/12 05:52:36;;;;;;;11.25;3.03;;;21.60;99.90;;;;;;4999054;28;20049;-85
2022/06/12 05:55:03;;;;;;;11.50;2.97;;;21.60;99.90;;;;;;5015105;28;20052;-85
2022/06/12 05:57:28;;;;;;;10.40;2.88;;;21.40;99.90;;;;;;4999012;28;20053;-85
2022/06/12 05:59:54;;;;;;;10.18;3.22;;;22.20;99.90;;;;;;5014898;28;20076;-86
2022/06/12 06:02:19;;;;;;;13.13;3.40;;;20.90;99.90;;;;;;4998527;28;20142;-86
2022/06/12 06:04:45;;;;;;;11.35;3.25;;;20.60;99.90;;;;;;5015377;28;20053;-85
2022/06/12 06:07:11;;;;;;;12.82;2.90;;;20.60;99.90;;;;;;5016114;28;20045;-85
2022/06/12 06:09:36;;;;;;;9.80;3.05;;;20.30;99.90;;;;;;4967659;28;20053;-87
2022/06/12 06:12:02;;;;;;;10.00;2.90;;;21.00;99.90;;;;;;4966868;28;20045;-85
2022/06/12 06:14:28;;;;;;;11.75;3.35;;;21.30;99.90;;;;;;5015126;28;20052;-85
2022/06/12 06:16:54;;;;;;;10.95;2.97;;;21.40;99.90;;;;;;4982304;28;20468;-86
2022/06/12 06:19:19;;;;;;;10.07;2.67;;;21.70;99.90;;;;;;5032595;28;20103;-86
2022/06/12 06:21:45;;;;;;;10.52;3.03;;;21.70;99.90;;;;;;5032381;28;20136;-86
2022/06/12 06:24:11;;;;;;;15.82;3.80;;;22.40;99.90;;;;;;4982209;28;20053;-86
2022/06/12 06:26:37;;;;;;;9.98;3.72;;;22.60;99.90;;;;;;4997852;28;20484;-85
2022/06/12 06:29:02;;;;;;;13.20;3.22;;;22.70;99.90;;;;;;5014903;28;20103;-86
2022/06/12 06:31:28;;;;;;;12.45;3.58;;;23.00;99.90;;;;;;5014498;28;20131;-86
2022/06/12 06:33:54;;;;;;;13.85;3.60;;;23.40;99.90;;;;;;4997899;28;20049;-86
2022/06/12 06:36:20;;;;;;;12.02;3.70;;;24.00;99.90;;;;;;5032288;28;20136;-85
2022/06/12 06:38:49;;;;;;;9.85;3.40;;;22.90;99.90;;;;;;4982379;28;20064;-87
2022/06/12 06:41:14;;;;;;;12.45;3.60;;;24.00;99.90;;;;;;5020014;28;20026;-89
2022/06/12 06:46:24;;;;;;;13.60;3.72;;;23.40;99.90;;;;;;5021004;28;20034;-86
2022/06/12 06:48:50;;;;;;;12.05;3.70;;;23.70;99.90;;;;;;5004174;28;20049;-85
2022/06/12 06:51:16;;;;;;;11.38;3.58;;;24.00;99.90;;;;;;4998142;28;20453;-86
2022/06/12 06:53:42;;;;;;;12.60;3.88;;;23.80;99.90;;;;;;4982257;28;20088;-86
2022/06/12 06:56:07;;;;;;;13.18;3.95;;;24.70;99.90;;;;;;5032189;28;20049;-85
2022/06/12 06:58:35;;;;;;;12.85;3.95;;;24.10;99.90;;;;;;4983329;28;20068;-85
2022/06/12 07:01:01;;;;;;;12.05;4.55;;;23.70;99.90;;;;;;5016321;28;20088;-86
2022/06/12 07:03:27;;;;;;;14.57;4.15;;;22.90;99.90;;;;;;4983390;28;20058;-86
2022/06/12 07:05:53;;;;;;;12.90;4.22;;;23.80;99.90;;;;;;4999560;28;20087;-84
2022/06/12 07:08:19;;;;;;;13.68;4.00;;;24.30;99.90;;;;;;4982028;28;20123;-87
2022/06/12 07:10:46;;;;;;;14.27;3.88;;;24.20;99.90;;;;;;4998453;28;20045;-87
2022/06/12 07:13:11;;;;;;;13.73;3.53;;;24.30;99.90;;;;;;4982158;28;20061;-87
2022/06/12 07:15:37;;;;;;;12.80;3.85;;;24.70;99.90;;;;;;5014400;28;20168;-88
2022/06/12 07:18:03;;;;;;;13.63;3.83;;;24.70;99.90;;;;;;4997674;28;20057;-87
2022/06/12 07:20:31;;;;;;;14.93;3.75;;;24.70;99.90;;;;;;5015125;28;20562;-84
2022/06/12 07:22:57;;;;;;;12.27;3.92;;;25.30;99.90;;;;;;5036584;28;20064;-87
2022/06/12 07:25:22;;;;;;;14.15;4.18;;;24.90;99.90;;;;;;5021088;28;20105;-87
2022/06/12 07:27:48;;;;;;;14.70;4.03;;;24.20;99.90;;;;;;5025785;28;20041;-85
2022/06/12 07:30:17;;;;;;;10.77;3.60;;;24.70;99.90;;;;;;5007858;28;20104;-87
2022/06/12 07:32:43;;;;;;;13.65;3.88;;;25.30;99.90;;;;;;4991831;28;20057;-87
2022/06/12 07:35:09;;;;;;;14.63;3.85;;;25.30;99.90;;;;;;5020283;28;20106;-86
2022/06/12 07:37:35;;;;;;;10.88;3.47;;;25.00;99.90;;;;;;4991916;28;20061;-87
2022/06/12 07:40:01;;;;;;;10.00;3.25;;;25.40;99.90;;;;;;5011031;28;20462;-87
2022/06/12 07:42:27;;;;;;;11.68;3.47;;;25.70;99.90;;;;;;4998792;28;20061;-87
2022/06/12 07:44:53;;;;;;;10.52;4.15;;;25.40;99.90;;;;;;5034117;28;20100;-86
2022/06/12 07:47:19;;;;;;;13.45;4.43;;;25.00;99.90;;;;;;5046581;28;20102;-86
2022/06/12 07:49:45;;;;;;;13.95;4.03;;;25.70;99.90;;;;;;5031402;28;20049;-88
2022/06/12 07:52:12;;;;;;;11.82;3.28;;;25.20;99.90;;;;;;5000297;28;20052;-86
2022/06/12 07:54:38;;;;;;;13.57;3.88;;;25.40;99.90;;;;;;4998618;28;20140;-88
2022/06/12 07:57:04;;;;;;;10.88;3.78;;;25.60;99.90;;;;;;5020592;28;20042;-87
2022/06/12 07:59:30;;;;;;;14.13;4.10;;;25.00;99.90;;;;;;5020727;28;20049;-87
2022/06/12 08:01:56;;;;;;;14.77;4.68;;;25.50;99.90;;;;;;5006325;28;20041;-89
2022/06/12 08:04:23;;;;;;;10.55;3.80;;;25.40;99.90;;;;;;5018746;28;20021;-93
2022/06/12 08:06:49;;;;;;;10.48;3.53;;;25.40;99.90;;;;;;5024266;28;20086;-87
2022/06/12 08:09:17;;;;;;;10.77;3.40;;;24.90;99.90;;;;;;5021993;28;20049;-92
2022/06/12 08:11:46;;;;;;;10.43;3.08;;;25.50;99.90;;;;;;4988061;28;20049;-87
2022/06/12 08:14:12;;;;;;;10.60;3.67;;;24.80;99.90;;;;;;5003482;28;20120;-88
2022/06/12 08:16:41;;;;;;;13.77;3.67;;;26.60;99.90;;;;;;5007732;28;20037;-87
2022/06/12 08:20:24;;;;;;;12.90;3.97;;;25.50;99.90;;;;;;5006535;28;20122;-88
2022/06/12 08:21:53;;;;;;;11.93;3.63;;;26.10;99.90;;;;;;4990419;28;20052;-88
2022/06/12 08:24:21;;;;;;;15.40;4.00;;;25.50;99.90;;;;;;4999479;28;20042;-87
2022/06/12 08:26:47;;;;;;;12.10;4.13;;;25.30;99.90;;;;;;4999662;28;20056;-87
2022/06/12 08:29:13;;;;;;;9.48;3.28;;;25.90;99.90;;;;;;4982339;28;20125;-89
2022/06/12 08:31:44;;;;;;;11.73;3.60;;;25.60;99.90;;;;;;5016246;28;20072;-90
2022/06/12 08:34:22;;;;;;;11.05;3.17;;;25.10;99.90;;;;;;4993713;28;20041;-89
2022/06/12 08:36:55;;;;;;;9.32;3.22;;;25.70;99.90;;;;;;4998015;28;20119;-86
2022/06/12 08:39:22;;;;;;;8.18;2.42;;;26.30;99.90;;;;;;5014953;28;20053;-87
2022/06/12 08:42:11;;;;;;;7.70;2.80;;;26.40;99.90;;;;;;5004259;28;20046;-88
2022/06/12 08:44:48;;;;;;;8.93;2.75;;;26.00;99.90;;;;;;5017240;28;20061;-87
2022/06/12 08:47:18;;;;;;;9.73;2.90;;;26.70;99.90;;;;;;4981143;28;20132;-87
2022/06/12 08:50:00;;;;;;;10.60;3.20;;;26.40;99.90;;;;;;4999096;28;20057;-87
2022/06/12 08:52:41;;;;;;;6.82;2.97;;;26.10;99.90;;;;;;4999835;28;20053;-88
2022/06/12 08:55:12;;;;;;;9.30;2.75;;;25.90;99.90;;;;;;5012508;28;20053;-89
2022/06/12 08:57:52;;;;;;;7.80;2.58;;;26.10;99.90;;;;;;5016409;28;20097;-89
2022/06/12 09:00:31;;;;;;;9.00;2.78;;;26.00;99.90;;;;;;5018607;28;20133;-92
2022/06/12 09:02:59;;;;;;;8.95;3.20;;;26.00;99.90;;;;;;5001479;28;20060;-90
2022/06/12 09:05:52;;;;;;;10.30;3.03;;;25.60;99.90;;;;;;5000229;28;20152;-89
2022/06/12 09:08:29;;;;;;;12.43;3.63;;;25.40;99.90;;;;;;5000659;28;20060;-90
2022/06/12 09:11:16;;;;;;;12.52;3.50;;;24.40;99.90;;;;;;5000168;28;20493;-89
2022/06/12 09:14:12;;;;;;;11.50;3.00;;;24.20;99.90;;;;;;4984693;28;20046;-89
2022/06/12 09:16:47;;;;;;;10.40;2.97;;;24.30;99.90;;;;;;5000225;28;20054;-88
2022/06/12 09:19:16;;;;;;;11.25;3.63;;;24.50;99.90;;;;;;5016704;28;20057;-90
2022/06/12 09:21:54;;;;;;;11.63;3.17;;;25.20;99.90;;;;;;5017471;28;20049;-91
2022/06/12 09:24:51;;;;;;;11.75;2.95;;;25.30;99.90;;;;;;5038091;28;20093;-92
2022/06/12 09:27:41;;;;;;;9.80;3.25;;;26.20;99.90;;;;;;5037030;28;20045;-91
2022/06/12 09:30:16;;;;;;;7.72;2.70;;;26.50;99.90;;;;;;4984910;28;20106;-89
2022/06/12 09:33:20;;;;;;;8.77;3.13;;;26.10;99.90;;;;;;4980978;28;20100;-88
2022/06/12 09:36:15;;;;;;;11.10;3.80;;;25.40;99.90;;;;;;5012920;28;20133;-88
2022/06/12 09:38:46;;;;;;;9.85;3.30;;;25.40;99.90;;;;;;5011510;28;20106;-89
2022/06/12 09:41:18;;;;;;;9.82;2.92;;;24.90;99.90;;;;;;4996412;28;20072;-88
2022/06/12 09:44:09;;;;;;;12.55;3.30;;;24.60;99.90;;;;;;4998477;28;20557;-88
2022/06/12 09:46:43;;;;;;;11.52;3.30;;;24.50;99.90;;;;;;4998556;28;20045;-89
2022/06/12 09:49:40;;;;;;;10.02;3.22;;;24.80;99.90;;;;;;5012428;28;20056;-89
2022/06/12 09:52:14;;;;;;;11.18;3.47;;;25.40;99.90;;;;;;4998395;28;20049;-88
2022/06/12 09:55:07;;;;;;;9.35;3.30;;;25.20;99.90;;;;;;5014565;28;20406;-88
2022/06/12 09:57:38;;;;;;;10.70;3.38;;;25.70;99.90;;;;;;4981050;28;20057;-88
2022/06/12 10:00:09;;;;;;;11.18;3.50;;;25.10;99.90;;;;;;4995886;28;20631;-89
2022/06/12 10:02:55;;;;;;;10.27;2.97;;;24.90;99.90;;;;;;4999173;28;20093;-91
2022/06/12 10:05:28;;;;;;;9.80;3.33;;;23.60;99.90;;;;;;4985701;28;20052;-91
2022/06/12 10:08:03;;;;;;;8.55;2.78;;;23.90;99.90;;;;;;4980996;28;20045;-89
2022/06/12 10:10:51;;;;;;;9.07;2.83;;;24.60;99.90;;;;;;4997870;28;20685;-87
2022/06/12 10:13:21;;;;;;;7.85;2.72;;;25.00;99.90;;;;;;4988434;28;20116;-88
2022/06/12 10:15:54;;;;;;;8.85;3.30;;;25.60;99.90;;;;;;4981580;28;20132;-85
2022/06/12 10:18:33;;;;;;;7.20;2.40;;;25.90;99.90;;;;;;4997455;28;20037;-87
2022/06/12 10:21:08;;;;;;;7.20;2.50;;;26.50;99.90;;;;;;4979009;28;20048;-87
2022/06/12 10:23:34;;;;;;;5.57;2.10;;;26.70;99.90;;;;;;4964374;28;20041;-88
2022/06/12 10:26:00;;;;;;;8.75;2.45;;;25.80;99.40;;;;;;4979329;28;20413;-86
2022/06/12 10:28:32;;;;;;;8.55;2.40;;;25.70;99.40;;;;;;4981743;28;20519;-91
2022/06/12 10:31:26;;;;;;;5.25;1.98;;;26.30;99.90;;;;;;4998582;28;20428;-89
2022/06/12 10:34:04;;;;;;;6.60;2.22;;;25.90;99.50;;;;;;5000447;28;20470;-88
2022/06/12 10:36:31;;;;;;;6.60;1.98;;;25.90;99.80;;;;;;4983713;28;20052;-91
2022/06/12 10:39:11;;;;;;;7.72;2.15;;;24.80;99.20;;;;;;4982474;28;20049;-89
2022/06/12 10:41:56;;;;;;;6.15;2.20;;;25.20;99.60;;;;;;4979034;28;20068;-87
2022/06/12 10:44:52;;;;;;;6.95;2.15;;;25.40;99.50;;;;;;5031253;28;20085;-88
2022/06/12 10:47:43;;;;;;;4.70;1.70;;;25.70;99.50;;;;;;5035023;28;20049;-85
2022/06/12 10:50:12;;;;;;;7.20;2.10;;;26.20;99.70;;;;;;4984298;28;20038;-87
2022/06/12 10:52:48;;;;;;;4.07;1.63;;;26.00;98.70;;;;;;4996528;28;20049;-89
2022/06/12 10:55:14;;;;;;;4.82;2.13;;;25.90;98.50;;;;;;4978769;28;20053;-89
2022/06/12 10:57:52;;;;;;;3.55;1.80;;;26.00;98.60;;;;;;4967625;28;20050;-87
2022/06/12 11:00:19;;;;;;;4.30;2.00;;;25.80;98.80;;;;;;5000944;28;20057;-87
2022/06/12 11:03:15;;;;;;;5.97;1.88;;;26.20;99.10;;;;;;4973558;28;20144;-87
2022/06/12 11:05:45;;;;;;;4.22;1.67;;;25.90;98.80;;;;;;5026069;28;20041;-89
2022/06/12 11:08:33;;;;;;;4.30;1.88;;;25.80;98.50;;;;;;5007939;28;20045;-87
2022/06/12 11:11:26;;;;;;;3.90;1.88;;;26.50;97.90;;;;;;5011380;28;20072;-90
2022/06/12 11:14:11;;;;;;;3.50;1.63;;;26.50;97.30;;;;;;5024976;28;20042;-89
2022/06/12 11:16:55;;;;;;;3.67;1.83;;;25.80;97.10;;;;;;5003723;28;20060;-88
2022/06/12 11:19:42;;;;;;;5.72;1.85;;;25.70;98.10;;;;;;5008094;28;20389;-88
2022/06/12 11:22:33;;;;;;;3.75;1.70;;;25.00;98.80;;;;;;4985395;28;20049;-89
2022/06/12 11:25:31;;;;;;;5.07;1.90;;;24.00;98.80;;;;;;4998574;28;20049;-89
2022/06/12 11:28:00;;;;;;;5.25;1.85;;;24.30;98.70;;;;;;4985859;28;20454;-88
2022/06/12 11:30:36;;;;;;;6.13;2.05;;;24.40;99.50;;;;;;5031762;28;20041;-89
2022/06/12 11:33:24;;;;;;;5.15;1.73;;;24.60;99.80;;;;;;4981610;28;20052;-90
2022/06/12 11:36:08;;;;;;;5.10;1.90;;;23.80;99.80;;;;;;5012768;28;20077;-90
2022/06/12 11:38:40;;;;;;;4.95;1.70;;;23.70;99.90;;;;;;5010233;28;20046;-89
2022/06/12 11:41:24;;;;;;;6.25;1.98;;;23.70;99.60;;;;;;5007136;28;20037;-91
2022/06/12 11:44:00;;;;;;;5.93;1.80;;;24.00;99.40;;;;;;5011781;28;20591;-87
2022/06/12 11:46:49;;;;;;;4.82;1.70;;;23.40;99.20;;;;;;5000356;28;20072;-88
2022/06/12 11:49:31;;;;;;;4.60;1.83;;;23.30;99.40;;;;;;4996331;28;20061;-90
2022/06/12 11:52:25;;;;;;;6.50;1.67;;;23.70;99.30;;;;;;5029033;28;20216;-89
2022/06/12 11:54:54;;;;;;;5.15;1.80;;;24.20;99.10;;;;;;5010847;28;20037;-91
2022/06/12 11:57:30;;;;;;;4.40;1.58;;;23.90;98.30;;;;;;4987299;28;20045;-93
2022/06/12 12:00:14;;;;;;;5.35;1.52;;;23.90;98.40;;;;;;4982615;28;20054;-92
2022/06/12 12:03:05;;;;;;;3.25;1.60;;;24.20;98.70;;;;;;4997813;28;20489;-94
2022/06/12 12:05:36;;;;;;;5.03;1.70;;;24.00;98.40;;;;;;5003408;28;20442;-85
2022/06/12 12:08:14;;;;;;;3.35;1.83;;;23.20;98.90;;;;;;5021983;28;20088;-93
2022/06/12 12:10:46;;;;;;;4.57;1.70;;;23.80;99.50;;;;;;5023982;28;20041;-93
2022/06/12 12:13:15;;;;;;;4.77;1.60;;;23.50;98.80;;;;;;5008207;28;20053;-87
2022/06/12 12:15:54;;;;;;;6.15;2.08;;;23.30;98.00;;;;;;5017500;28;20058;-93
2022/06/12 12:18:44;;;;;;;4.65;1.55;;;23.00;98.80;;;;;;5008482;28;20046;-91
2022/06/12 12:21:13;;;;;;;7.82;2.28;;;22.80;99.90;;;;;;4998245;28;20037;-86
2022/06/12 12:23:42;;;;;;;3.22;1.58;;;23.20;99.80;;;;;;4983711;28;20033;-86
2022/06/12 12:26:15;;;;;;;6.68;1.95;;;23.60;99.10;;;;;;4998942;28;20472;-87
2022/06/12 12:28:48;;;;;;;7.20;1.80;;;23.50;99.40;;;;;;4998895;28;20045;-85
2022/06/12 12:31:15;;;;;;;;;;;23.10;98.90;;;;;;4997908;28;20497;-87
2022/06/12 12:33:44;;;;;;;4.80;1.67;;;23.50;98.20;;;;;;5015651;28;19917;-89
2022/06/12 12:41:46;;;;;;;4.80;1.73;;;24.30;99.10;;;;;;5001956;28;20544;-88
2022/06/12 12:44:13;;;;;;;4.30;1.73;;;23.90;98.00;;;;;;5014063;28;20084;-90
2022/06/12 12:46:48;;;;;;;5.07;1.52;;;24.20;98.20;;;;;;4976811;28;20130;-87
2022/06/12 12:49:32;;;;;;;5.85;1.67;;;23.90;98.30;;;;;;4981411;28;20065;-89
2022/06/12 12:52:04;;;;;;;6.00;2.03;;;23.70;98.90;;;;;;4972424;28;20038;-89
2022/06/12 12:54:41;;;;;;;5.05;2.00;;;23.70;99.80;;;;;;5005466;28;20046;-90
2022/06/12 12:57:06;;;;;;;4.32;1.90;;;22.80;99.90;;;;;;4981466;28;20050;-89
2022/06/12 12:59:46;;;;;;;6.53;2.15;;;22.50;99.90;;;;;;4977448;28;20049;-91
2022/06/12 13:02:22;;;;;;;5.50;2.30;;;22.70;99.90;;;;;;4957400;28;20078;-88
2022/06/12 13:04:48;;;;;;;7.60;2.45;;;22.90;99.90;;;;;;4993868;28;20064;-90
2022/06/12 13:07:31;;;;;;;5.72;2.25;;;22.60;99.90;;;;;;4996037;28;20042;-89
2022/06/12 13:10:39;;;;;;;7.18;2.40;;;22.60;99.90;;;;;;4983848;28;20467;-89
2022/06/12 13:13:23;;;;;;;4.00;1.92;;;22.30;99.90;;;;;;4986603;28;20049;-89
2022/06/12 13:15:55;;;;;;;4.80;2.08;;;22.60;99.90;;;;;;5026815;28;20120;-90
2022/06/12 13:19:04;;;;;;;5.53;2.00;;;22.90;99.90;;;;;;4980672;28;20042;-90
2022/06/12 13:21:52;;;;;;;6.00;2.38;;;22.80;99.90;;;;;;4983002;28;20242;-87
2022/06/12 13:24:35;;;;;;;7.45;2.13;;;22.50;99.90;;;;;;4987613;28;20067;-90
2022/06/12 13:27:12;;;;;;;6.18;1.83;;;22.20;99.90;;;;;;4942687;28;20058;-91
2022/06/12 13:29:44;;;;;;;6.43;2.25;;;22.60;99.90;;;;;;5009696;28;20084;-90
2022/06/12 13:32:23;;;;;;;5.95;1.90;;;22.50;99.90;;;;;;5001638;28;20034;-91